Time;durP1;ratioP1;P1;durP2;ratioP2;P2;SDS_P1;SDS_P2;PMS_P1;PMS_P2;Temp;Humidity;BMP_temperature;BMP_pressure;BME280_temperature;BME280_humidity;BME280_pressure;Samples;Min_cycle;Max_cycle;Signal;HPM_P1;HPM_P2
2021/01/19 00:01:26;;;;;;;24.67;9.63;;;;;;;-11.14;49.49;101274.13;1734695;82;21143;-59
2021/01/19 00:03:53;;;;;;;19.05;8.20;;;;;;;-11.24;49.93;101265.67;1737172;82;21119;-59
2021/01/19 00:06:21;;;;;;;22.07;9.10;;;;;;;-11.27;50.16;101265.39;1728884;82;21638;-54
2021/01/19 00:08:49;;;;;;;27.37;10.82;;;;;;;-11.22;50.34;101264.52;1771855;79;21325;-59
2021/01/19 00:11:17;;;;;;;22.00;8.90;;;;;;;-11.18;50.05;101264.44;1774027;81;21573;-59
2021/01/19 00:13:44;;;;;;;17.02;8.35;;;;;;;-11.22;49.74;101260.34;1772302;79;21559;-60
2021/01/19 00:16:12;;;;;;;22.02;8.80;;;;;;;-11.23;49.95;101262.73;1710190;82;21172;-53
2021/01/19 00:18:39;;;;;;;20.60;8.75;;;;;;;-11.23;49.96;101270.36;1731070;82;21166;-50
2021/01/19 00:21:07;;;;;;;22.87;10.15;;;;;;;-11.21;49.92;101270.13;1737447;82;21559;-56
2021/01/19 00:23:35;;;;;;;20.30;8.53;;;;;;;-11.28;49.19;101276.31;1727182;82;21602;-52
2021/01/19 00:26:02;;;;;;;24.70;10.70;;;;;;;-11.37;49.31;101278.94;1773745;81;21640;-50
2021/01/19 00:28:30;;;;;;;21.87;9.98;;;;;;;-11.49;48.96;101280.75;1774084;80;21562;-50
2021/01/19 00:30:58;;;;;;;26.20;11.08;;;;;;;-11.56;49.06;101290.72;1773317;79;21504;-56
2021/01/19 00:33:25;;;;;;;17.15;7.45;;;;;;;-11.56;49.69;101294.53;1772547;79;21528;-50
2021/01/19 00:35:53;;;;;;;23.45;10.18;;;;;;;-11.54;49.38;101294.29;1772617;79;21578;-57
2021/01/19 00:38:21;;;;;;;22.75;10.30;;;;;;;-11.65;49.03;101285.31;1790204;79;21120;-51
2021/01/19 00:40:49;;;;;;;19.35;8.23;;;;;;;-11.71;49.42;101281.33;1770750;80;21606;-57
2021/01/19 00:43:16;;;;;;;22.58;9.60;;;;;;;-11.72;49.39;101276.64;1730556;81;21581;-50
2021/01/19 00:45:44;;;;;;;18.05;7.97;;;;;;;-11.71;49.56;101283.86;1707493;83;21567;-57
2021/01/19 00:48:12;;;;;;;20.05;7.78;;;;;;;-11.70;49.25;101294.15;1706485;83;21694;-50
2021/01/19 00:50:39;;;;;;;21.05;8.45;;;;;;;-11.76;48.76;101288.54;1710929;83;21663;-50
2021/01/19 00:53:07;;;;;;;20.32;8.58;;;;;;;-11.85;48.71;101290.22;1747767;82;21146;-51
2021/01/19 00:55:35;;;;;;;21.27;8.73;;;;;;;-11.93;48.81;101301.31;1706195;84;21163;-57
2021/01/19 00:58:03;;;;;;;15.78;6.90;;;;;;;-12.03;48.99;101295.41;1675303;85;21584;-50
2021/01/19 01:00:32;;;;;;;17.30;7.13;;;;;;;-12.02;49.22;101290.84;1708739;83;21171;-57
2021/01/19 01:03:01;;;;;;;25.57;10.00;;;;;;;-12.05;48.96;101289.30;1706047;83;21907;-50
2021/01/19 01:05:29;;;;;;;25.40;9.45;;;;;;;-12.06;49.36;101292.58;1706544;83;21639;-57
2021/01/19 01:07:58;;;;;;;27.15;10.58;;;;;;;-12.03;49.05;101285.25;1708088;84;21627;-50
2021/01/19 01:10:26;;;;;;;24.55;10.85;;;;;;;-12.07;49.20;101281.03;1707024;83;21621;-50
2021/01/19 01:12:54;;;;;;;23.73;9.53;;;;;;;-12.11;49.35;101274.40;1705839;84;21199;-50
2021/01/19 01:15:35;;;;;;;22.25;8.93;;;;;;;-12.03;49.54;101274.22;1706504;83;21623;-50
2021/01/19 01:18:04;;;;;;;15.35;6.70;;;;;;;-11.95;49.89;101262.70;1689694;82;21851;-56
2021/01/19 01:20:32;;;;;;;19.07;7.75;;;;;;;-11.90;49.38;101273.66;1709049;83;21620;-50
2021/01/19 01:22:59;;;;;;;23.75;9.88;;;;;;;-11.95;49.17;101268.18;1709931;83;21166;-51
2021/01/19 01:25:28;;;;;;;20.32;8.05;;;;;;;-12.01;49.44;101263.83;1713383;83;21201;-57
2021/01/19 01:27:55;;;;;;;22.15;8.75;;;;;;;-12.03;49.61;101272.95;1706738;84;21667;-56
2021/01/19 01:30:23;;;;;;;17.87;8.18;;;;;;;-12.04;49.46;101272.04;1706571;83;21136;-50
2021/01/19 01:32:51;;;;;;;21.17;8.28;;;;;;;-12.01;49.85;101259.63;1706535;84;21627;-50
2021/01/19 01:35:21;;;;;;;21.00;9.10;;;;;;;-12.03;49.58;101272.95;1706734;83;21524;-50
2021/01/19 01:37:53;;;;;;;22.45;9.23;;;;;;;-12.05;49.66;101279.53;1712218;83;21623;-57
2021/01/19 01:40:23;;;;;;;17.02;7.47;;;;;;;-12.04;49.54;101278.78;1718448;83;21559;-51
2021/01/19 01:42:53;;;;;;;20.25;8.73;;;;;;;-12.06;49.80;101278.63;1779674;80;21179;-51
2021/01/19 01:45:22;;;;;;;26.65;11.33;;;;;;;-12.03;49.99;101278.91;1778862;80;21570;-50
2021/01/19 01:47:50;;;;;;;22.00;8.70;;;;;;;-12.01;50.00;101278.67;1779718;81;21551;-57
2021/01/19 01:50:18;;;;;;;17.85;8.18;;;;;;;-11.93;50.19;101277.19;1796106;79;21142;-56
2021/01/19 01:52:46;;;;;;;16.82;8.08;;;;;;;-11.86;50.11;101284.23;1716929;82;21567;-49
2021/01/19 01:55:17;;;;;;;18.75;8.70;;;;;;;-11.80;50.12;101299.16;1714066;84;21156;-57
2021/01/19 01:57:45;;;;;;;14.43;6.22;;;;;;;-11.75;50.24;101298.30;1732897;82;21141;-51
2021/01/19 02:00:14;;;;;;;15.95;6.03;;;;;;;-11.71;49.71;101302.55;1708973;82;21578;-50
2021/01/19 02:02:53;;;;;;;17.05;6.78;;;;;;;-11.69;49.90;101299.75;1794271;79;21138;-50
2021/01/19 02:05:22;;;;;;;17.25;7.20;;;;;;;-11.68;49.46;101293.91;1787063;80;21159;-57
2021/01/19 02:08:39;;;;;;;16.70;7.35;;;;;;;-11.65;49.76;101289.12;1784000;80;21187;-57
2021/01/19 02:11:36;;;;;;;21.68;9.98;;;;;;;-11.59;49.93;101291.70;1686889;84;21578;-56
2021/01/19 02:14:41;;;;;;;12.43;5.90;;;;;;;-11.53;49.79;101289.73;1778921;79;21717;-50
2021/01/19 02:17:26;;;;;;;16.25;7.20;;;;;;;-11.52;49.42;101277.18;1779757;79;21550;-51
2021/01/19 02:20:32;;;;;;;14.30;4.60;;;;;;;-11.48;49.93;101273.65;1709358;83;21132;-50
2021/01/19 02:23:35;;;;;;;25.02;10.68;;;;;;;-11.40;49.94;101268.85;1726599;82;21583;-56
2021/01/19 02:26:24;;;;;;;24.27;9.78;;;;;;;-11.32;49.88;101269.56;1713396;83;21221;-57
2021/01/19 02:28:56;;;;;;;20.45;8.58;;;;;;;-11.28;49.57;101276.31;1712352;82;21638;-57
2021/01/19 02:32:00;;;;;;;27.02;12.50;;;;;;;-11.28;49.56;101275.05;1708737;84;21682;-51
2021/01/19 02:34:56;;;;;;;15.53;7.85;;;;;;;-11.27;48.73;101279.77;1708668;84;21646;-50
2021/01/19 02:37:35;;;;;;;31.52;13.20;;;;;;;-11.51;47.84;101281.51;1709109;82;21551;-51
2021/01/19 02:40:11;;;;;;;32.40;16.60;;;;;;;-11.72;48.28;101271.91;1776360;77;28094;-59
2021/01/19 02:43:11;;;;;;;30.62;15.15;;;;;;;-11.82;48.55;101279.95;1734442;81;21100;-58
2021/01/19 02:45:45;;;;;;;27.75;11.60;;;;;;;-11.82;47.98;101280.34;1747148;82;21158;-52
2021/01/19 02:48:13;;;;;;;25.57;11.40;;;;;;;-12.12;47.21;101283.12;1713304;81;21135;-51
2021/01/19 02:50:41;;;;;;;30.40;11.25;;;;;;;-12.41;47.20;101280.03;1734881;82;21586;-59
2021/01/19 02:53:10;;;;;;;29.57;12.68;;;;;;;-12.70;47.09;101281.98;1742475;82;21183;-59
2021/01/19 02:55:40;;;;;;;30.95;10.43;;;;;;;-12.95;47.27;101273.28;1727404;82;21155;-59
2021/01/19 02:58:30;;;;;;;30.08;13.25;;;;;;;-13.11;47.36;101267.11;1748274;82;21178;-58
2021/01/19 03:01:07;;;;;;;29.30;12.03;;;;;;;-13.29;47.17;101259.89;1749182;82;21151;-58
2021/01/19 03:03:37;;;;;;;33.10;12.68;;;;;;;-13.47;47.61;101251.08;1745587;82;21530;-58
2021/01/19 03:06:15;;;;;;;27.98;10.32;;;;;;;-13.60;47.53;101262.88;1728418;82;21092;-51
2021/01/19 03:08:45;;;;;;;27.90;11.33;;;;;;;-13.70;48.15;101262.74;1749014;82;21187;-51
2021/01/19 03:11:16;;;;;;;23.67;11.48;;;;;;;-13.71;48.62;101266.02;1748144;82;21123;-58
2021/01/19 03:13:46;;;;;;;36.33;12.60;;;;;;;-13.74;48.76;101269.52;1738588;82;21325;-51
2021/01/19 03:16:16;;;;;;;23.60;10.72;;;;;;;-13.80;48.73;101282.44;1751678;81;21643;-52
2021/01/19 03:18:45;;;;;;;21.68;8.70;;;;;;;-13.87;48.69;101280.03;1749197;81;21523;-51
2021/01/19 03:21:13;;;;;;;26.10;12.03;;;;;;;-13.90;49.41;101279.37;1749249;82;21511;-58
2021/01/19 03:23:41;;;;;;;19.35;7.95;;;;;;;-13.92;48.61;101276.17;1745724;81;21570;-51
2021/01/19 03:26:10;;;;;;;30.80;13.10;;;;;;;-14.03;48.51;101281.79;1742549;82;21143;-51
2021/01/19 03:28:37;;;;;;;26.77;11.53;;;;;;;-14.16;48.51;101279.66;1742732;82;21154;-51
2021/01/19 03:31:06;;;;;;;31.83;11.27;;;;;;;-14.25;48.78;101283.41;1748453;82;21595;-58
2021/01/19 03:33:33;;;;;;;24.77;9.80;;;;;;;-14.29;48.73;101288.53;1743184;81;21645;-52
2021/01/19 03:36:02;;;;;;;31.30;12.10;;;;;;;-14.38;48.80;101285.06;1741819;82;21313;-59
2021/01/19 03:38:29;;;;;;;30.23;13.50;;;;;;;-14.43;48.89;101277.02;1743357;82;21582;-51
2021/01/19 03:40:57;;;;;;;28.02;11.83;;;;;;;-14.47;49.04;101279.97;1740951;82;21171;-51
2021/01/19 03:43:25;;;;;;;27.27;10.43;;;;;;;-14.53;49.15;101274.28;1734412;81;21304;-51
2021/01/19 03:45:53;;;;;;;34.10;12.50;;;;;;;-14.53;49.18;101275.16;1747434;82;21139;-51
2021/01/19 03:48:21;;;;;;;31.52;11.05;;;;;;;-14.66;49.48;101289.45;1740848;81;21570;-51
2021/01/19 03:50:48;;;;;;;28.07;11.60;;;;;;;-14.68;49.66;101276.14;1740039;82;21620;-58
2021/01/19 03:53:16;;;;;;;28.35;10.13;;;;;;;-14.67;49.81;101282.61;1747639;82;21642;-58
2021/01/19 03:55:44;;;;;;;28.17;10.43;;;;;;;-14.68;49.71;101275.76;1706835;83;21646;-58
2021/01/19 03:58:11;;;;;;;26.05;10.50;;;;;;;-14.64;49.76;101287.10;1681175;85;21596;-51
2021/01/19 04:00:40;;;;;;;27.48;11.60;;;;;;;-14.61;49.64;101282.71;1744523;82;21108;-58
2021/01/19 04:03:07;;;;;;;26.73;10.98;;;;;;;-14.62;49.77;101289.77;1737873;82;21547;-51
2021/01/19 04:05:34;;;;;;;26.93;10.88;;;;;;;-14.59;49.82;101281.23;1747437;82;21898;-51
2021/01/19 04:08:03;;;;;;;23.30;9.13;;;;;;;-14.56;49.96;101277.77;1743982;81;21507;-52
2021/01/19 04:10:31;;;;;;;31.33;12.27;;;;;;;-14.53;49.87;101278.08;1741512;81;21486;-51
2021/01/19 04:12:58;;;;;;;21.65;8.73;;;;;;;-14.55;49.67;101279.17;1741157;82;21555;-58
2021/01/19 04:15:26;;;;;;;17.15;7.35;;;;;;;-14.56;49.82;101275.23;1741207;82;21563;-58
2021/01/19 04:17:53;;;;;;;33.25;11.15;;;;;;;-14.39;49.75;101277.86;1705456;84;21563;-59
2021/01/19 04:20:22;;;;;;;31.62;11.63;;;;;;;-14.30;49.83;101271.57;1688523;84;21197;-50
2021/01/19 04:22:49;;;;;;;32.37;12.50;;;;;;;-14.32;49.53;101264.55;1696435;84;21579;-58
2021/01/19 04:25:17;;;;;;;25.08;9.30;;;;;;;-14.46;49.74;101257.74;1677779;84;21334;-51
2021/01/19 04:27:45;;;;;;;26.40;10.18;;;;;;;-14.47;49.89;101255.95;1685361;84;21550;-51
2021/01/19 04:30:14;;;;;;;23.47;11.17;;;;;;;-14.44;50.09;101256.27;1724380;82;21575;-59
2021/01/19 04:32:42;;;;;;;15.93;6.17;;;;;;;-14.36;50.45;101252.88;1746828;81;21170;-51
2021/01/19 04:35:10;;;;;;;17.70;6.20;;;;;;;-14.21;51.07;101266.18;1737585;82;21563;-50
2021/01/19 04:37:38;;;;;;;32.98;13.25;;;;;;;-14.09;50.92;101268.13;1719729;82;21111;-51
2021/01/19 04:40:08;;;;;;;58.50;19.27;;;;;;;-13.90;51.34;101279.72;1740757;81;21183;-59
2021/01/19 04:42:37;;;;;;;29.77;10.70;;;;;;;-13.76;51.02;101274.41;1759758;81;21155;-59
2021/01/19 04:45:08;;;;;;;25.88;8.28;;;;;;;-13.73;50.34;101272.92;1748177;81;21589;-51
2021/01/19 04:47:37;;;;;;;20.85;8.08;;;;;;;-13.76;50.36;101274.41;1740551;81;21301;-58
2021/01/19 04:50:12;;;;;;;22.17;8.30;;;;;;;-13.82;49.90;101286.84;1742449;81;21543;-58
2021/01/19 04:52:44;;;;;;;28.27;11.25;;;;;;;-13.85;50.52;101289.06;1705411;84;21504;-51
2021/01/19 04:55:25;;;;;;;19.70;7.42;;;;;;;-13.77;50.81;101286.92;1730280;82;21171;-51
2021/01/19 04:58:02;;;;;;;21.45;8.18;;;;;;;-13.75;50.08;101290.50;1758420;81;21141;-51
2021/01/19 05:00:32;;;;;;;21.42;9.50;;;;;;;-13.85;50.16;101289.94;1757985;81;21148;-51
2021/01/19 05:03:19;;;;;;;25.55;10.20;;;;;;;-14.02;50.67;101290.78;1758905;81;21507;-51
2021/01/19 05:06:01;;;;;;;19.77;7.92;;;;;;;-14.06;51.26;101286.16;1763009;80;21123;-51
2021/01/19 05:08:43;;;;;;;16.40;6.15;;;;;;;-14.05;51.50;101287.59;1752066;81;21578;-58
2021/01/19 05:11:23;;;;;;;17.48;7.50;;;;;;;-13.89;51.89;101280.25;1756398;81;21154;-58
2021/01/19 05:14:02;;;;;;;20.88;9.10;;;;;;;-13.67;52.23;101283.27;1763800;80;21107;-51
2021/01/19 05:16:33;;;;;;;17.62;7.70;;;;;;;-13.49;52.21;101279.52;1762093;80;21188;-58
2021/01/19 05:19:02;;;;;;;17.55;7.80;;;;;;;-13.41;52.27;101281.16;1770011;80;21150;-58
2021/01/19 05:21:34;;;;;;;21.75;9.58;;;;;;;-13.34;52.22;101286.41;1765134;80;21138;-59
2021/01/19 05:24:02;;;;;;;27.73;9.80;;;;;;;-13.10;52.29;101283.23;1763522;80;21572;-59
2021/01/19 05:26:30;;;;;;;26.77;10.60;;;;;;;-12.94;52.31;101282.67;1769629;80;21174;-51
2021/01/19 05:28:57;;;;;;;25.65;12.18;;;;;;;-12.83;51.55;101279.02;1708630;81;21131;-59
2021/01/19 05:31:29;;;;;;;37.58;15.88;;;;;;;-12.89;50.85;101284.02;1754857;80;21744;-59
2021/01/19 05:34:09;;;;;;;31.75;12.58;;;;;;;-13.03;50.61;101285.62;1771127;80;21159;-58
2021/01/19 05:36:41;;;;;;;28.92;10.98;;;;;;;-13.15;50.87;101296.34;1760334;80;21154;-58
2021/01/19 05:39:15;;;;;;;18.77;8.65;;;;;;;-13.17;50.89;101319.73;1766154;80;21100;-51
2021/01/19 05:41:52;;;;;;;34.88;14.78;;;;;;;-13.23;51.03;101324.19;1746849;81;21120;-58
2021/01/19 05:44:29;;;;;;;27.27;10.93;;;;;;;-13.25;50.79;101324.06;1760674;81;21566;-59
2021/01/19 05:47:02;;;;;;;27.75;11.80;;;;;;;-13.31;50.42;101320.92;1754036;81;21605;-51
2021/01/19 05:49:42;;;;;;;21.52;8.90;;;;;;;-13.34;51.44;101331.66;1755200;81;21151;-51
2021/01/19 05:52:12;;;;;;;26.27;9.30;;;;;;;-13.20;52.63;101333.36;1757009;80;21547;-59
2021/01/19 05:54:47;;;;;;;21.33;9.75;;;;;;;-12.95;52.99;101337.05;1761343;81;21582;-58
2021/01/19 05:57:22;;;;;;;24.27;10.13;;;;;;;-12.73;52.53;101335.83;1758657;81;21527;-59
2021/01/19 06:00:03;;;;;;;25.48;9.83;;;;;;;-12.89;49.97;101332.58;1767626;81;21186;-58
2021/01/19 06:02:40;;;;;;;31.15;13.95;;;;;;;-13.32;49.42;101338.13;1775952;80;21146;-58
2021/01/19 06:05:14;;;;;;;23.42;11.63;;;;;;;-13.81;49.81;101337.60;1776630;81;21154;-51
2021/01/19 06:07:45;;;;;;;39.78;13.85;;;;;;;-14.03;50.16;101332.02;1750686;81;21570;-51
2021/01/19 06:10:20;;;;;;;24.85;10.75;;;;;;;-14.14;50.36;101335.99;1723378;81;21594;-58
2021/01/19 06:12:51;;;;;;;32.03;13.32;;;;;;;-14.12;51.12;101335.78;1725417;82;21134;-58
2021/01/19 06:15:29;;;;;;;28.80;12.87;;;;;;;-14.08;51.29;101334.44;1753156;81;21708;-58
2021/01/19 06:18:03;;;;;;;42.80;17.10;;;;;;;-14.00;51.62;101338.65;1749711;82;21135;-59
2021/01/19 06:20:43;;;;;;;30.80;12.80;;;;;;;-13.91;51.80;101334.52;1746841;82;21638;-58
2021/01/19 06:23:12;;;;;;;31.40;13.05;;;;;;;-13.91;51.76;101333.26;1709801;84;21534;-58
2021/01/19 06:25:39;;;;;;;37.28;14.47;;;;;;;-13.93;51.80;101335.13;1738900;82;21168;-58
2021/01/19 06:28:11;;;;;;;32.35;14.68;;;;;;;-13.98;51.73;101333.38;1744452;81;21559;-52
2021/01/19 06:30:39;;;;;;;40.30;17.57;;;;;;;-13.97;51.92;101335.16;1737831;81;21531;-58
2021/01/19 06:33:08;;;;;;;33.80;13.22;;;;;;;-13.88;52.30;101329.25;1710693;84;21613;-52
2021/01/19 06:35:42;;;;;;;39.98;17.07;;;;;;;-13.77;52.40;101333.76;1726245;82;21139;-52
2021/01/19 06:38:09;;;;;;;34.35;13.88;;;;;;;-13.64;52.55;101336.75;1741722;82;21095;-51
2021/01/19 06:40:37;;;;;;;32.58;14.98;;;;;;;-13.48;52.54;101335.76;1717871;82;21155;-58
2021/01/19 06:43:06;;;;;;;45.00;17.50;;;;;;;-13.28;52.84;101333.89;1717432;83;21610;-52
2021/01/19 06:45:34;;;;;;;47.58;18.62;;;;;;;-13.09;52.81;101336.98;1731670;82;21115;-58
2021/01/19 06:48:04;;;;;;;39.65;15.28;;;;;;;-12.96;52.51;101332.72;1740920;82;21708;-58
2021/01/19 06:50:37;;;;;;;43.30;16.00;;;;;;;-12.88;52.46;101336.90;1736096;82;21163;-58
2021/01/19 06:53:20;;;;;;;28.50;11.40;;;;;;;-12.78;52.75;101333.60;1744229;82;21111;-52
2021/01/19 06:56:09;;;;;;;29.90;12.50;;;;;;;-12.68;52.86;101333.75;1738637;82;21311;-52
2021/01/19 07:11:59;;;;;;;36.75;16.05;;;;;;;-12.16;53.15;101317.49;1803848;79;28641;-56
2021/01/19 07:15:04;;;;;;;31.12;13.05;;;;;;;-12.01;53.11;101326.03;1634604;87;21168;-63
2021/01/19 07:18:02;;;;;;;29.57;13.72;;;;;;;-11.85;53.05;101321.97;1619072;88;21584;-61
2021/01/19 07:20:32;;;;;;;32.35;14.45;;;;;;;-11.72;52.91;101327.80;1631699;85;21315;-62
2021/01/19 07:23:01;;;;;;;40.45;19.12;;;;;;;-11.64;52.74;101337.02;1653647;85;21208;-61
2021/01/19 07:25:29;;;;;;;42.15;17.60;;;;;;;-11.55;52.54;101346.77;1631751;86;21222;-62
2021/01/19 07:27:57;;;;;;;36.85;14.80;;;;;;;-11.51;52.15;101354.28;1633789;87;21292;-55
2021/01/19 07:30:25;;;;;;;38.15;15.93;;;;;;;-11.53;51.77;101365.59;1628665;88;21632;-61
2021/01/19 07:32:54;;;;;;;43.68;18.42;;;;;;;-11.77;51.34;101366.75;1635992;87;21633;-61
2021/01/19 07:35:25;;;;;;;44.83;17.60;;;;;;;-11.96;51.48;101362.48;1628602;88;21643;-62
2021/01/19 07:37:58;;;;;;;34.58;15.63;;;;;;;-12.02;51.89;101357.25;1624502;88;21237;-62
2021/01/19 07:40:26;;;;;;;44.65;17.05;;;;;;;-11.95;53.06;101354.50;1631642;87;21620;-55
2021/01/19 07:42:54;;;;;;;39.13;17.60;;;;;;;-11.77;52.75;101354.05;1630606;88;21207;-55
2021/01/19 07:45:31;;;;;;;34.20;14.23;;;;;;;-11.60;52.87;101355.97;1630489;88;21231;-55
2021/01/19 07:48:07;;;;;;;45.55;18.50;;;;;;;-11.49;52.51;101354.05;1628972;87;21265;-63
2021/01/19 07:50:40;;;;;;;38.58;15.48;;;;;;;-11.31;52.25;101359.04;1636821;87;21199;-63
2021/01/19 07:53:09;;;;;;;42.38;17.30;;;;;;;-11.18;52.32;101356.84;1640643;87;21349;-62
2021/01/19 07:55:43;;;;;;;34.03;14.45;;;;;;;-11.21;52.22;101349.84;1634647;87;21205;-57
2021/01/19 07:58:20;;;;;;;35.73;14.05;;;;;;;-11.03;52.60;101352.63;1628623;88;21372;-64
2021/01/19 08:00:57;;;;;;;40.15;16.07;;;;;;;-10.99;51.78;101346.67;1628630;88;21185;-64
2021/01/19 08:03:30;;;;;;;36.05;16.60;;;;;;;-10.94;51.75;101350.53;1628400;88;21182;-57
2021/01/19 08:06:09;;;;;;;34.80;15.30;;;;;;;-10.76;52.21;101346.18;1632791;87;21225;-58
2021/01/19 08:08:40;;;;;;;46.48;17.02;;;;;;;-10.68;51.63;101343.43;1640565;87;21232;-63
2021/01/19 08:11:11;;;;;;;37.90;16.70;;;;;;;-10.59;51.41;101339.16;1640512;87;21207;-63
2021/01/19 08:13:38;;;;;;;44.27;18.50;;;;;;;-10.56;51.44;101343.61;1643685;86;21192;-63
2021/01/19 08:16:07;;;;;;;38.00;18.15;;;;;;;-10.49;51.21;101344.30;1626074;88;21155;-62
2021/01/19 08:18:40;;;;;;;;;;;;;;;-10.44;50.95;101348.91;1628682;88;21364;-55
2021/01/19 08:21:09;;;;;;;37.70;14.38;;;;;;;-10.35;50.85;101344.56;1626295;88;20156;-55
2021/01/19 08:23:38;;;;;;;34.67;13.93;;;;;;;-10.23;50.81;101345.64;1626556;88;21682;-62
2021/01/19 08:26:09;;;;;;;31.65;13.62;;;;;;;-10.20;50.51;101349.73;1648305;87;22089;-56
2021/01/19 08:28:37;;;;;;;31.17;14.07;;;;;;;-10.10;50.27;101355.23;1623294;88;21206;-61
2021/01/19 08:31:15;;;;;;;32.20;14.33;;;;;;;-10.15;50.13;101350.11;1649728;87;21328;-56
2021/01/19 08:33:49;;;;;;;30.68;12.75;;;;;;;-10.06;50.32;101348.36;1631558;88;21176;-58
2021/01/19 08:36:12;;;;;;;21.17;11.48;;;;;;;-10.22;49.77;101345.28;1636812;87;21349;-62
2021/01/19 08:38:40;;;;;;;31.73;14.18;;;;;;;-10.29;49.97;101347.65;1616836;88;21349;-56
2021/01/19 08:41:12;;;;;;;32.20;13.55;;;;;;;-10.31;50.10;101343.71;1629555;88;21209;-55
2021/01/19 08:43:51;;;;;;;29.45;12.88;;;;;;;-10.14;50.32;101332.80;1636016;87;21164;-57
2021/01/19 08:46:19;;;;;;;28.25;11.35;;;;;;;-9.84;50.23;101334.02;1642803;87;21223;-62
2021/01/19 08:48:49;;;;;;;23.85;12.55;;;;;;;-9.71;50.25;101327.94;1622123;87;21334;-61
2021/01/19 08:51:22;;;;;;;32.25;13.78;;;;;;;-9.51;50.14;101323.25;1637482;87;21342;-56
2021/01/19 08:53:51;;;;;;;30.08;12.30;;;;;;;-9.40;49.51;101321.58;1646965;87;21231;-58
2021/01/19 08:56:26;;;;;;;26.55;11.55;;;;;;;-9.29;49.23;101321.22;1646251;87;21188;-61
2021/01/19 08:58:53;;;;;;;36.23;14.60;;;;;;;-9.25;49.17;101316.85;1650843;87;21659;-57
2021/01/19 09:01:22;;;;;;;26.68;12.23;;;;;;;-9.26;49.15;101315.06;1652872;87;21203;-56
2021/01/19 09:03:58;;;;;;;26.50;12.65;;;;;;;-9.15;49.45;101327.05;1623676;87;21653;-62
2021/01/19 09:06:25;;;;;;;34.53;12.82;;;;;;;-9.16;48.70;101318.02;1652260;87;21595;-61
2021/01/19 09:08:56;;;;;;;27.25;11.03;;;;;;;-9.15;48.49;101322.35;1629887;88;21172;-61
2021/01/19 09:11:32;;;;;;;31.90;14.13;;;;;;;-9.13;48.55;101320.82;1639615;87;21147;-61
2021/01/19 09:14:08;;;;;;;27.85;11.18;;;;;;;-8.94;49.67;101316.84;1635639;88;21341;-55
2021/01/19 09:16:38;;;;;;;29.10;11.78;;;;;;;-8.76;48.95;101321.26;1635908;88;21140;-62
2021/01/19 09:19:09;;;;;;;21.00;9.55;;;;;;;-8.72;48.20;101315.63;1633842;88;21253;-62
2021/01/19 09:21:38;;;;;;;31.30;12.98;;;;;;;-8.99;47.37;101315.56;1633681;88;21207;-56
2021/01/19 09:24:17;;;;;;;24.25;9.65;;;;;;;-8.92;48.27;101314.39;1636986;88;21227;-62
2021/01/19 09:27:01;;;;;;;32.73;15.08;;;;;;;-8.91;48.11;101312.35;1636255;88;21170;-56
2021/01/19 09:29:31;;;;;;;26.15;11.18;;;;;;;-8.74;48.56;101309.52;1652496;87;21361;-56
2021/01/19 09:32:00;;;;;;;31.35;14.90;;;;;;;-8.64;48.17;101304.75;1649834;87;21315;-62
2021/01/19 09:34:30;;;;;;;39.23;15.28;;;;;;;-8.48;48.36;101304.27;1649509;87;21201;-62
2021/01/19 09:36:59;;;;;;;31.87;14.23;;;;;;;-8.37;48.06;101299.64;1649568;87;21182;-62
2021/01/19 09:39:28;;;;;;;31.10;13.88;;;;;;;-8.26;47.98;101299.19;1648898;87;21628;-57
2021/01/19 09:41:59;;;;;;;33.92;15.00;;;;;;;-8.22;47.67;101297.79;1652674;87;21583;-56
2021/01/19 09:44:27;;;;;;;33.28;14.47;;;;;;;-8.20;47.52;101303.91;1625518;87;21149;-57
2021/01/19 09:47:01;;;;;;;32.93;14.78;;;;;;;-8.03;47.48;101298.83;1640752;87;21172;-57
2021/01/19 09:49:28;;;;;;;28.67;13.65;;;;;;;-7.97;47.08;101296.75;1637572;87;21225;-63
2021/01/19 09:52:10;;;;;;;27.95;12.43;;;;;;;-8.01;46.97;101295.10;1647840;87;21328;-63
2021/01/19 09:54:38;;;;;;;33.75;14.40;;;;;;;-7.98;47.04;101291.14;1629659;87;21179;-62
2021/01/19 09:57:08;;;;;;;27.85;11.53;;;;;;;-8.01;47.64;101290.90;1652792;87;21172;-57
2021/01/19 09:59:38;;;;;;;32.95;14.63;;;;;;;-8.01;47.19;101285.79;1639000;87;21217;-62
2021/01/19 10:02:05;;;;;;;34.92;15.72;;;;;;;-7.94;47.09;101286.73;1620754;88;21169;-62
2021/01/19 10:04:34;;;;;;;27.22;12.53;;;;;;;-7.91;46.85;101285.70;1630945;88;21181;-57
2021/01/19 10:07:29;;;;;;;32.38;14.03;;;;;;;-8.03;46.54;101284.78;1620262;88;21158;-56
2021/01/19 10:10:14;;;;;;;36.60;15.48;;;;;;;-8.00;47.14;101279.00;1715242;83;21193;-61
2021/01/19 10:12:43;;;;;;;34.53;15.48;;;;;;;-7.90;47.24;101277.66;1738133;82;21161;-56
2021/01/19 10:15:12;;;;;;;36.95;14.98;;;;;;;-7.80;47.13;101276.31;1724566;82;21144;-56
2021/01/19 10:17:40;;;;;;;35.68;14.28;;;;;;;-7.70;47.34;101278.27;1724889;83;21169;-62
2021/01/19 10:20:14;;;;;;;38.30;16.37;;;;;;;-7.58;46.92;101274.50;1731609;82;21606;-57
2021/01/19 10:22:46;;;;;;;40.50;18.35;;;;;;;-7.47;47.10;101279.63;1724895;82;21608;-56
2021/01/19 10:25:29;;;;;;;38.90;17.95;;;;;;;-7.45;46.60;101279.73;1708842;84;21311;-62
2021/01/19 10:27:59;;;;;;;35.78;15.40;;;;;;;-7.49;46.12;101282.83;1710965;82;21572;-56
2021/01/19 10:30:33;;;;;;;32.08;14.13;;;;;;;-7.59;46.36;101281.66;1722242;82;21098;-57
2021/01/19 10:33:01;;;;;;;33.75;14.18;;;;;;;-7.63;46.46;101280.52;1712160;83;21198;-62
2021/01/19 10:35:34;;;;;;;34.85;15.58;;;;;;;-7.66;46.83;101276.45;1726419;83;21201;-62
2021/01/19 10:38:06;;;;;;;35.85;15.20;;;;;;;-7.72;46.57;101270.50;1730886;82;21165;-62
2021/01/19 10:40:36;;;;;;;33.70;16.10;;;;;;;-7.68;46.65;101273.80;1737796;82;21695;-56
2021/01/19 10:43:10;;;;;;;36.75;16.62;;;;;;;-7.63;46.74;101274.13;1736762;82;21164;-63
2021/01/19 10:45:40;;;;;;;34.95;15.75;;;;;;;-7.58;46.38;101262.58;1726356;82;21174;-62
2021/01/19 10:48:19;;;;;;;32.13;14.60;;;;;;;-7.53;46.74;101265.10;1708953;84;21217;-63
2021/01/19 10:50:48;;;;;;;31.40;14.13;;;;;;;-7.43;46.45;101257.72;1735221;82;21157;-62
2021/01/19 10:53:15;;;;;;;34.18;13.98;;;;;;;-7.44;46.45;101253.38;1738278;82;21180;-62
2021/01/19 10:55:42;;;;;;;31.57;15.48;;;;;;;-7.49;46.33;101241.91;1723201;82;21159;-62
2021/01/19 10:58:10;;;;;;;29.70;13.77;;;;;;;-7.57;46.32;101242.63;1721939;82;21153;-57
2021/01/19 11:00:37;;;;;;;31.73;14.03;;;;;;;-7.62;46.18;101237.55;1737493;81;21157;-57
2021/01/19 11:03:05;;;;;;;33.00;15.05;;;;;;;-7.63;46.39;101237.05;1696353;84;21178;-57
2021/01/19 11:05:33;;;;;;;31.45;14.33;;;;;;;-7.58;46.65;101242.12;1733644;82;21141;-57
2021/01/19 11:08:00;;;;;;;37.07;15.07;;;;;;;-7.40;46.42;101238.77;1738846;81;21615;-56
2021/01/19 11:10:28;;;;;;;33.75;15.32;;;;;;;-7.29;46.32;101231.00;1742872;82;21183;-57
2021/01/19 11:12:56;;;;;;;29.70;13.13;;;;;;;-7.17;46.45;101230.22;1742552;82;21137;-57
2021/01/19 11:15:24;;;;;;;28.80;14.63;;;;;;;-7.00;46.21;101225.45;1738981;82;21137;-63
2021/01/19 11:17:52;;;;;;;31.50;13.72;;;;;;;-7.10;45.51;101225.55;1683126;85;21207;-57
2021/01/19 11:20:20;;;;;;;35.08;14.93;;;;;;;-7.12;46.20;101225.46;1712894;84;21193;-63
2021/01/19 11:22:48;;;;;;;36.35;15.93;;;;;;;-6.98;46.18;101228.11;1717074;81;21126;-63
2021/01/19 11:25:16;;;;;;;31.87;13.10;;;;;;;-6.91;45.46;101225.21;1728637;83;21200;-62
2021/01/19 11:27:49;;;;;;;30.75;14.30;;;;;;;-6.98;45.65;101226.45;1728660;83;21304;-58
2021/01/19 11:30:19;;;;;;;27.17;11.75;;;;;;;-6.89;45.58;101219.81;1751693;81;21153;-57
2021/01/19 11:32:47;;;;;;;36.45;14.65;;;;;;;-6.88;45.37;101222.50;1726310;83;21194;-57
2021/01/19 11:35:35;;;;;;;35.70;15.15;;;;;;;-6.79;46.13;101220.07;1729755;83;21157;-57
2021/01/19 11:38:05;;;;;;;20.10;9.30;;;;;;;-6.61;45.52;101217.55;1717376;83;21206;-57
2021/01/19 11:40:33;;;;;;;29.72;11.63;;;;;;;-6.39;45.59;101209.20;1691909;84;21670;-58
2021/01/19 11:43:03;;;;;;;32.63;15.50;;;;;;;-6.23;45.22;101212.42;1706170;83;21741;-63